Skiros, Greece
Current Conditions -  °F | °C
As of 10:50 AM on Saturday 25 Oct 2014 (Local Time) from LGSY Reporting Station
Broken Clouds Broken Clouds  
Wind Chill: 61°   Ceiling: 8000
Heat Index: 61°   Visibility: 6mi
Dew Point: 48°   Wind: 14mph
Humidity: 63%   Direction: 260°W
Pressure: 29.74"   Gusts: NA
Location:  38.9°N, 24.56°E
Report Text: LGSY 250750Z 26012KT 9999 SCT018 BKN080 16/09 Q1007 BLU
Loading
Personal Weather Stations






























Interactive Weather Map New forecast layout! Learn more

10-Day Weather Forecast

Advertisements
Track Severe Weather on mobile